Time;durP1;ratioP1;P1;durP2;ratioP2;P2;SDS_P1;SDS_P2;PMS_P1;PMS_P2;Temp;Humidity;BMP_temperature;BMP_pressure;BME280_temperature;BME280_humidity;BME280_pressure;Samples;Min_cycle;Max_cycle;Signal;HPM_P1;HPM_P2
2021/12/08 05:01:11;;;;;;;2.70;2.50;;;3.60;99.90;;;;;;5918139;23;20492;-78
2021/12/08 05:03:50;;;;;;;3.40;2.90;;;3.70;99.90;;;;;;4956378;29;20443;-79
2021/12/08 05:06:25;;;;;;;3.30;3.00;;;3.70;99.90;;;;;;4957840;28;20488;-80
2021/12/08 05:08:56;;;;;;;5.40;3.53;;;3.80;99.90;;;;;;4957498;28;20924;-79
2021/12/08 05:11:26;;;;;;;4.80;4.23;;;3.70;99.90;;;;;;4958114;28;20578;-79
2021/12/08 05:13:56;;;;;;;4.40;3.57;;;3.70;99.90;;;;;;4980053;23;20587;-78
2021/12/08 05:16:26;;;;;;;4.10;3.70;;;3.70;99.90;;;;;;4955006;29;20544;-76
2021/12/08 05:18:56;;;;;;;7.50;4.10;;;3.60;99.90;;;;;;4953760;29;20548;-77
2021/12/08 05:21:28;;;;;;;5.43;3.90;;;3.70;99.90;;;;;;4956331;29;20548;-77
2021/12/08 05:23:58;;;;;;;4.23;3.67;;;3.70;99.90;;;;;;4956578;28;20576;-77
2021/12/08 05:26:31;;;;;;;4.60;4.17;;;3.70;99.90;;;;;;4958301;28;20516;-78
2021/12/08 05:29:01;;;;;;;11.10;8.00;;;3.80;99.90;;;;;;4960638;28;20456;-78
2021/12/08 05:31:31;;;;;;;12.17;8.50;;;3.80;99.90;;;;;;4959373;29;20539;-77
2021/12/08 05:34:00;;;;;;;12.67;7.83;;;3.80;99.90;;;;;;4959274;28;20981;-78
2021/12/08 05:36:27;;;;;;;10.10;6.23;;;3.80;99.90;;;;;;4961426;29;21000;-78
2021/12/08 05:38:55;;;;;;;6.70;4.63;;;3.90;99.90;;;;;;4960468;29;20893;-77
2021/12/08 05:41:25;;;;;;;5.37;4.00;;;3.90;99.90;;;;;;4959550;29;20449;-81
2021/12/08 05:43:52;;;;;;;4.13;3.73;;;3.90;99.90;;;;;;4957690;28;20512;-77
2021/12/08 05:46:22;;;;;;;11.30;4.83;;;3.90;99.90;;;;;;4957387;29;20536;-78
2021/12/08 05:48:51;;;;;;;4.90;4.40;;;3.80;99.90;;;;;;4957378;29;20547;-77
2021/12/08 05:51:21;;;;;;;6.67;4.87;;;3.90;99.90;;;;;;4958212;29;20503;-77
2021/12/08 05:53:51;;;;;;;5.60;4.50;;;3.90;99.90;;;;;;4959704;28;20568;-76
2021/12/08 05:56:19;;;;;;;5.47;4.80;;;3.90;99.90;;;;;;4959497;29;21024;-77
2021/12/08 05:58:49;;;;;;;6.00;4.10;;;4.00;99.90;;;;;;4959578;29;20495;-78
2021/12/08 06:01:21;;;;;;;4.27;3.87;;;4.00;99.90;;;;;;4957570;29;20833;-73
2021/12/08 06:03:52;;;;;;;6.10;4.03;;;4.00;99.90;;;;;;4956817;28;20552;-69
2021/12/08 06:06:21;;;;;;;4.73;4.07;;;4.00;99.90;;;;;;4956530;29;20566;-69
2021/12/08 06:08:49;;;;;;;5.17;3.60;;;4.00;99.90;;;;;;4956694;28;20453;-73
2021/12/08 06:11:17;;;;;;;4.07;3.50;;;4.00;99.90;;;;;;4956362;29;20499;-73
2021/12/08 06:13:47;;;;;;;6.10;5.40;;;4.10;99.90;;;;;;4956480;28;20516;-73
2021/12/08 06:16:16;;;;;;;4.83;4.23;;;4.10;99.90;;;;;;4956853;29;20543;-74
2021/12/08 06:18:43;;;;;;;4.70;4.10;;;4.20;99.90;;;;;;4956548;28;20540;-73
2021/12/08 06:21:18;;;;;;;6.40;4.60;;;4.20;99.90;;;;;;4956447;28;20488;-73
2021/12/08 06:23:45;;;;;;;5.40;4.40;;;4.20;99.90;;;;;;4956725;28;20563;-74
2021/12/08 06:26:16;;;;;;;7.80;5.97;;;4.10;99.90;;;;;;4956266;29;20456;-74
2021/12/08 06:28:43;;;;;;;9.13;7.00;;;4.10;99.90;;;;;;4956338;29;20973;-74
2021/12/08 06:31:12;;;;;;;8.37;6.17;;;4.10;99.90;;;;;;4956276;29;20495;-74
2021/12/08 06:33:40;;;;;;;8.43;7.00;;;4.00;99.90;;;;;;4956594;28;20901;-74
2021/12/08 06:36:09;;;;;;;11.43;6.43;;;4.10;99.90;;;;;;4956419;29;20437;-74
2021/12/08 06:38:39;;;;;;;10.93;6.23;;;4.10;99.90;;;;;;4956161;28;20544;-74
2021/12/08 06:41:11;;;;;;;12.20;6.33;;;4.20;99.90;;;;;;4955996;29;21031;-74
2021/12/08 06:43:41;;;;;;;13.57;6.83;;;4.10;99.90;;;;;;4956168;28;20476;-73
2021/12/08 06:46:09;;;;;;;9.00;7.00;;;4.10;99.90;;;;;;4956025;28;20484;-73
2021/12/08 06:48:43;;;;;;;7.10;5.87;;;3.90;99.90;;;;;;4956162;29;20548;-73
2021/12/08 06:51:13;;;;;;;8.23;5.50;;;3.80;99.90;;;;;;4955954;29;20584;-74
2021/12/08 06:53:43;;;;;;;8.80;5.87;;;3.80;99.90;;;;;;4956029;28;20491;-73
2021/12/08 06:56:14;;;;;;;8.40;6.30;;;3.70;99.90;;;;;;4956299;28;20535;-73
2021/12/08 06:58:46;;;;;;;7.13;5.17;;;3.80;99.90;;;;;;4955747;28;20452;-73
2021/12/08 07:01:22;;;;;;;5.73;4.83;;;3.80;99.90;;;;;;4956063;29;20457;-73
2021/12/08 07:04:07;;;;;;;6.87;5.03;;;3.80;99.90;;;;;;4955958;28;20477;-74
2021/12/08 07:06:46;;;;;;;6.90;4.80;;;3.90;99.90;;;;;;4955892;28;20966;-73
2021/12/08 07:09:21;;;;;;;8.93;5.57;;;3.90;99.90;;;;;;4955415;28;20463;-73
2021/12/08 07:11:49;;;;;;;7.60;5.57;;;4.00;99.90;;;;;;4955197;28;20914;-73
2021/12/08 07:14:16;;;;;;;6.73;4.60;;;4.00;99.90;;;;;;4954436;28;20485;-73
2021/12/08 07:16:48;;;;;;;5.80;4.80;;;4.10;99.90;;;;;;4955707;29;20535;-73
2021/12/08 07:19:27;;;;;;;6.97;5.00;;;4.10;99.90;;;;;;4955234;28;20492;-73
2021/12/08 07:21:59;;;;;;;11.07;4.73;;;4.10;99.90;;;;;;4955819;28;20537;-75
2021/12/08 07:24:30;;;;;;;5.87;4.07;;;4.20;99.90;;;;;;4955611;28;20511;-72
2021/12/08 07:26:59;;;;;;;5.70;4.47;;;4.20;99.90;;;;;;4955464;29;20531;-72
2021/12/08 07:29:31;;;;;;;7.50;5.27;;;4.30;99.90;;;;;;4955134;29;20464;-72
2021/12/08 07:32:01;;;;;;;5.77;4.70;;;4.30;99.90;;;;;;4955447;29;20504;-74
2021/12/08 07:34:28;;;;;;;6.50;4.90;;;4.30;99.90;;;;;;4955264;28;20989;-74
2021/12/08 07:36:59;;;;;;;7.10;4.77;;;4.40;99.90;;;;;;4955434;29;20495;-74
2021/12/08 07:39:42;;;;;;;7.73;5.10;;;4.40;99.90;;;;;;4955051;29;20481;-73
2021/12/08 07:42:17;;;;;;;7.20;4.70;;;4.40;99.90;;;;;;4954965;29;20453;-73
2021/12/08 07:44:44;;;;;;;4.90;4.40;;;4.50;99.90;;;;;;4955301;28;20511;-73
2021/12/08 07:47:13;;;;;;;7.10;5.30;;;4.50;99.90;;;;;;4955109;29;20545;-73
2021/12/08 07:49:43;;;;;;;5.93;5.33;;;4.50;99.90;;;;;;4954334;28;20532;-73
2021/12/08 07:52:13;;;;;;;7.77;5.37;;;4.60;99.90;;;;;;4954903;29;20528;-73
2021/12/08 07:54:42;;;;;;;9.63;4.90;;;4.60;99.90;;;;;;4954621;28;20504;-73
2021/12/08 07:57:14;;;;;;;5.20;4.53;;;4.60;99.90;;;;;;4954830;29;20540;-73
2021/12/08 07:59:43;;;;;;;6.93;5.40;;;4.70;99.90;;;;;;4954774;29;20535;-74
2021/12/08 08:02:10;;;;;;;9.53;6.17;;;4.70;99.90;;;;;;4954882;28;20536;-73
2021/12/08 08:04:41;;;;;;;8.00;6.90;;;4.70;99.90;;;;;;4954691;28;20579;-73
2021/12/08 08:07:09;;;;;;;12.13;6.80;;;4.70;99.90;;;;;;4954586;29;20484;-73
2021/12/08 08:09:40;;;;;;;13.30;7.47;;;4.70;99.90;;;;;;4954540;29;20480;-73
2021/12/08 08:12:14;;;;;;;10.50;6.80;;;4.60;99.90;;;;;;4954622;29;20496;-73
2021/12/08 08:14:43;;;;;;;10.93;6.53;;;4.60;99.90;;;;;;4954516;28;20534;-73
2021/12/08 08:17:15;;;;;;;11.83;7.10;;;4.70;99.90;;;;;;4954514;29;20539;-73
2021/12/08 08:19:45;;;;;;;8.67;6.20;;;4.60;99.90;;;;;;4954144;29;20543;-73
2021/12/08 08:22:16;;;;;;;6.90;5.70;;;4.70;99.90;;;;;;4954625;29;20515;-73
2021/12/08 08:24:44;;;;;;;9.67;6.20;;;4.70;99.90;;;;;;4954096;28;20559;-73
2021/12/08 08:27:15;;;;;;;9.13;6.40;;;4.70;99.90;;;;;;4954653;29;20875;-73
2021/12/08 08:29:43;;;;;;;10.07;6.20;;;4.80;99.90;;;;;;4954015;29;20519;-73
2021/12/08 08:32:19;;;;;;;8.87;6.17;;;4.80;99.90;;;;;;4953958;29;20499;-73
2021/12/08 08:34:48;;;;;;;9.20;7.47;;;4.80;99.90;;;;;;4954333;28;20480;-73
2021/12/08 08:37:16;;;;;;;10.40;7.27;;;4.80;99.90;;;;;;4954113;28;20544;-73
2021/12/08 08:39:48;;;;;;;9.17;6.43;;;4.80;99.90;;;;;;4953636;29;20448;-73
2021/12/08 08:42:20;;;;;;;9.07;7.67;;;4.90;99.90;;;;;;4954106;29;20448;-73
2021/12/08 08:44:50;;;;;;;10.57;8.17;;;4.90;99.90;;;;;;4954003;28;20475;-74
2021/12/08 08:47:22;;;;;;;11.57;7.87;;;4.90;99.90;;;;;;4954277;29;20547;-74
2021/12/08 08:49:51;;;;;;;10.13;7.20;;;4.90;99.90;;;;;;4953869;29;20815;-74
2021/12/08 08:52:24;;;;;;;12.20;7.80;;;5.00;99.90;;;;;;4953966;29;20495;-74
2021/12/08 08:54:54;;;;;;;10.43;7.23;;;5.00;99.90;;;;;;4953834;28;20907;-73
2021/12/08 08:57:26;;;;;;;8.20;6.17;;;5.00;99.90;;;;;;4953914;29;20540;-73
2021/12/08 08:59:56;;;;;;;8.20;6.53;;;5.00;99.90;;;;;;4953788;28;20453;-72
2021/12/08 09:02:28;;;;;;;7.20;5.87;;;5.00;99.90;;;;;;4953439;29;20476;-74
2021/12/08 09:05:00;;;;;;;7.80;5.90;;;5.10;99.90;;;;;;4954146;28;20511;-73
2021/12/08 09:07:33;;;;;;;7.93;6.20;;;5.10;99.90;;;;;;4953836;29;20543;-73
2021/12/08 09:10:04;;;;;;;11.93;8.70;;;5.10;99.90;;;;;;4953896;28;20479;-72
2021/12/08 09:12:36;;;;;;;10.33;9.17;;;5.10;99.90;;;;;;4954006;29;20525;-74
2021/12/08 09:15:08;;;;;;;10.60;8.53;;;5.20;99.90;;;;;;4953670;28;20490;-73
2021/12/08 09:17:39;;;;;;;11.67;8.33;;;5.10;99.90;;;;;;4953860;29;20485;-73
2021/12/08 09:20:13;;;;;;;8.17;7.07;;;5.20;99.90;;;;;;4953621;29;20949;-73
2021/12/08 09:22:44;;;;;;;8.90;6.73;;;5.10;99.90;;;;;;4953628;28;20495;-72
2021/12/08 09:25:14;;;;;;;11.20;6.93;;;5.20;99.90;;;;;;4953922;28;20445;-73
2021/12/08 09:27:46;;;;;;;7.80;6.57;;;5.10;99.90;;;;;;4944544;29;20445;-73
2021/12/08 09:30:17;;;;;;;7.70;6.53;;;5.10;99.90;;;;;;4941515;29;20544;-73
2021/12/08 09:32:48;;;;;;;11.40;8.10;;;5.10;99.90;;;;;;4943586;29;20906;-73
2021/12/08 09:35:20;;;;;;;24.70;15.60;;;5.20;99.90;;;;;;4937068;29;20457;-73
2021/12/08 09:37:51;;;;;;;25.00;16.50;;;5.30;99.90;;;;;;4934642;29;20540;-73
2021/12/08 09:40:29;;;;;;;25.00;12.50;;;5.30;99.90;;;;;;4934051;29;20545;-73
2021/12/08 09:43:01;;;;;;;18.10;10.70;;;5.30;99.90;;;;;;4934182;29;21111;-73
2021/12/08 09:45:32;;;;;;;14.63;11.40;;;5.30;99.90;;;;;;4934605;29;20461;-73
2021/12/08 09:48:02;;;;;;;15.73;10.63;;;5.30;99.90;;;;;;4934421;29;20453;-73
2021/12/08 09:50:29;;;;;;;12.40;8.90;;;5.40;99.90;;;;;;4932727;29;20958;-73
2021/12/08 09:52:56;;;;;;;11.77;9.40;;;5.30;99.90;;;;;;4932914;29;20946;-73
2021/12/08 09:55:23;;;;;;;10.17;8.23;;;5.30;99.90;;;;;;4933517;29;20469;-73
2021/12/08 09:57:51;;;;;;;11.00;8.43;;;5.30;99.90;;;;;;4933630;29;20540;-73
2021/12/08 10:00:29;;;;;;;8.83;7.30;;;5.40;99.90;;;;;;4933533;29;20548;-73
2021/12/08 10:02:58;;;;;;;11.07;7.80;;;5.40;99.90;;;;;;4933642;29;20497;-73
2021/12/08 10:05:27;;;;;;;11.77;7.20;;;5.30;99.90;;;;;;4933955;29;20971;-73
2021/12/08 10:07:55;;;;;;;10.20;8.20;;;5.30;99.90;;;;;;4934037;29;20505;-73
2021/12/08 10:10:22;;;;;;;13.13;9.70;;;5.30;99.90;;;;;;4933737;29;20546;-74
2021/12/08 10:12:49;;;;;;;14.20;10.10;;;5.30;99.90;;;;;;4935591;29;20536;-73
2021/12/08 10:15:21;;;;;;;10.60;8.50;;;5.30;99.90;;;;;;4937573;29;20977;-73
2021/12/08 10:17:49;;;;;;;11.57;8.03;;;5.30;99.90;;;;;;4937692;29;20544;-73
2021/12/08 10:20:18;;;;;;;9.73;7.40;;;5.30;99.90;;;;;;4937383;29;20454;-73
2021/12/08 10:22:47;;;;;;;11.70;7.50;;;5.30;99.90;;;;;;4937217;29;21022;-73
2021/12/08 10:25:16;;;;;;;8.90;6.83;;;5.30;99.90;;;;;;4937557;29;20461;-73
2021/12/08 10:28:06;;;;;;;10.73;7.30;;;5.40;99.90;;;;;;4937599;29;20625;-73
2021/12/08 10:30:40;;;;;;;11.53;7.50;;;5.40;99.90;;;;;;4937096;29;20548;-73
2021/12/08 10:33:17;;;;;;;16.03;10.73;;;5.40;99.90;;;;;;4937080;29;20480;-73
2021/12/08 10:36:00;;;;;;;22.20;12.50;;;5.50;99.90;;;;;;4937494;29;20555;-73
2021/12/08 10:38:37;;;;;;;19.50;11.33;;;5.50;99.90;;;;;;4937066;29;20449;-73
2021/12/08 10:41:08;;;;;;;16.20;9.23;;;5.60;99.90;;;;;;4937098;29;20532;-73
2021/12/08 10:43:36;;;;;;;15.70;10.43;;;5.60;99.90;;;;;;4936897;29;20560;-73
2021/12/08 10:46:08;;;;;;;12.33;9.17;;;5.60;99.90;;;;;;4937281;29;20493;-73
2021/12/08 10:48:39;;;;;;;11.37;8.53;;;5.60;99.90;;;;;;4937158;29;20549;-73
2021/12/08 10:54:26;;;;;;;11.20;8.30;;;5.50;99.90;;;;;;4924308;29;20461;-73
2021/12/08 10:56:56;;;;;;;17.30;8.27;;;5.50;99.90;;;;;;4937098;29;20541;-73
2021/12/08 10:59:25;;;;;;;12.73;8.73;;;5.50;99.90;;;;;;4936697;29;20468;-73
2021/12/08 11:01:54;;;;;;;13.20;8.60;;;5.50;99.90;;;;;;4936885;29;20545;-73
2021/12/08 11:04:30;;;;;;;10.23;7.87;;;5.50;99.90;;;;;;4936581;29;20522;-73
2021/12/08 11:07:05;;;;;;;12.00;8.70;;;5.50;99.90;;;;;;4936862;29;20896;-73
2021/12/08 11:09:40;;;;;;;18.83;10.93;;;5.50;99.90;;;;;;4936614;29;20485;-73
2021/12/08 11:12:08;;;;;;;39.10;23.07;;;5.50;99.90;;;;;;4936672;29;20584;-73
2021/12/08 11:14:47;;;;;;;15.13;10.27;;;5.50;99.90;;;;;;4936652;29;20910;-72
2021/12/08 11:17:30;;;;;;;13.40;7.57;;;5.50;99.90;;;;;;4936767;29;20544;-72
2021/12/08 11:20:16;;;;;;;9.70;8.10;;;5.60;99.90;;;;;;4935719;29;20946;-73
2021/12/08 11:22:44;;;;;;;12.23;8.63;;;5.60;99.90;;;;;;4935169;29;20529;-73
2021/12/08 11:25:22;;;;;;;8.33;6.60;;;5.60;99.90;;;;;;4934005;29;20930;-73
2021/12/08 11:27:49;;;;;;;9.23;7.60;;;5.70;99.90;;;;;;4936144;29;20453;-73
2021/12/08 11:30:22;;;;;;;10.93;7.70;;;5.60;99.90;;;;;;4935704;29;20544;-73
2021/12/08 11:32:50;;;;;;;7.90;6.83;;;5.70;99.90;;;;;;4935706;29;20493;-73
2021/12/08 11:35:21;;;;;;;12.57;7.73;;;5.70;99.90;;;;;;4935873;29;20485;-73
2021/12/08 11:37:59;;;;;;;9.43;7.63;;;5.70;99.90;;;;;;4935832;29;20540;-73
2021/12/08 11:40:26;;;;;;;14.27;9.20;;;5.70;99.90;;;;;;4935847;29;20975;-73
2021/12/08 11:42:53;;;;;;;9.00;6.90;;;5.70;99.90;;;;;;4936102;29;20456;-72
2021/12/08 11:45:22;;;;;;;8.80;6.33;;;5.70;99.90;;;;;;4936018;29;20469;-72
2021/12/08 11:47:50;;;;;;;8.83;7.03;;;5.70;99.90;;;;;;4936072;29;20457;-74
2021/12/08 11:50:21;;;;;;;10.67;6.20;;;5.70;99.90;;;;;;4935649;29;20902;-73
2021/12/08 11:52:52;;;;;;;9.10;6.40;;;5.70;99.90;;;;;;4935780;29;21089;-73
2021/12/08 11:55:21;;;;;;;8.47;6.90;;;5.70;99.90;;;;;;4935740;29;20517;-73
2021/12/08 11:57:53;;;;;;;9.00;6.60;;;5.70;99.90;;;;;;4935732;29;20545;-73
2021/12/08 12:00:22;;;;;;;8.17;6.43;;;5.70;99.90;;;;;;4935393;29;20457;-73
2021/12/08 12:02:56;;;;;;;9.50;6.50;;;5.70;99.90;;;;;;4935892;29;20453;-73
2021/12/08 12:05:25;;;;;;;10.40;7.83;;;5.70;99.90;;;;;;4935392;29;21017;-73
2021/12/08 12:07:52;;;;;;;18.43;10.97;;;5.70;99.90;;;;;;4935572;29;20488;-73
2021/12/08 12:10:25;;;;;;;15.10;9.20;;;5.70;99.90;;;;;;4935311;29;20458;-73
2021/12/08 12:12:52;;;;;;;12.63;8.00;;;5.70;99.90;;;;;;4934772;29;20540;-73
2021/12/08 12:15:21;;;;;;;9.10;6.87;;;5.70;99.90;;;;;;4935377;29;20497;-73
2021/12/08 12:17:50;;;;;;;9.63;7.57;;;5.70;99.90;;;;;;4935501;29;20493;-74
2021/12/08 12:20:23;;;;;;;8.03;7.13;;;5.70;99.90;;;;;;4935113;29;20973;-73
2021/12/08 12:23:07;;;;;;;9.07;6.60;;;5.80;99.90;;;;;;4935280;29;20453;-73
2021/12/08 12:25:53;;;;;;;8.37;6.63;;;5.80;99.90;;;;;;4935175;29;20882;-72
2021/12/08 12:28:56;;;;;;;9.90;7.40;;;5.80;99.90;;;;;;4935169;29;20461;-73
2021/12/08 12:31:29;;;;;;;9.30;6.43;;;5.90;99.90;;;;;;4934937;29;20489;-73
2021/12/08 12:33:58;;;;;;;15.27;7.83;;;5.90;99.90;;;;;;4934905;29;20522;-73
2021/12/08 12:36:30;;;;;;;14.83;8.70;;;5.90;99.90;;;;;;4934924;29;20458;-73
2021/12/08 12:39:11;;;;;;;13.07;10.10;;;5.90;99.90;;;;;;4934795;29;20450;-73
2021/12/08 12:41:39;;;;;;;14.37;10.30;;;6.00;99.90;;;;;;4934904;29;20938;-73
2021/12/08 12:44:22;;;;;;;15.93;11.17;;;6.00;99.90;;;;;;4934865;29;20482;-73
2021/12/08 12:47:13;;;;;;;16.23;10.73;;;6.00;99.90;;;;;;4935046;29;20504;-74
2021/12/08 12:49:45;;;;;;;12.30;9.70;;;6.00;99.90;;;;;;4934520;29;20461;-72
2021/12/08 12:52:13;;;;;;;14.87;9.13;;;6.00;99.90;;;;;;4934926;29;21091;-73
2021/12/08 12:54:41;;;;;;;11.10;9.07;;;6.00;99.90;;;;;;4934287;29;21006;-72
2021/12/08 12:57:09;;;;;;;10.77;8.23;;;6.00;99.90;;;;;;4933757;29;20454;-73
2021/12/08 12:59:41;;;;;;;10.87;9.10;;;6.00;99.90;;;;;;4933595;29;20808;-73
2021/12/08 13:02:11;;;;;;;11.23;9.40;;;6.10;99.90;;;;;;4933886;29;20520;-73
2021/12/08 13:04:53;;;;;;;15.30;10.23;;;6.10;99.90;;;;;;4933765;29;20500;-73
2021/12/08 13:07:21;;;;;;;16.60;10.57;;;6.00;99.90;;;;;;4933957;29;20473;-73
2021/12/08 13:09:52;;;;;;;20.40;13.60;;;6.10;99.90;;;;;;4933668;29;20458;-72
2021/12/08 13:12:20;;;;;;;26.17;18.93;;;6.00;99.90;;;;;;4933816;29;20515;-73
2021/12/08 13:15:05;;;;;;;21.73;13.77;;;6.00;99.90;;;;;;4933427;29;21010;-72
2021/12/08 13:17:33;;;;;;;17.20;10.80;;;6.00;99.90;;;;;;4933453;29;20462;-73
2021/12/08 13:20:05;;;;;;;13.57;10.10;;;6.10;99.90;;;;;;4933530;29;20461;-73
2021/12/08 13:22:53;;;;;;;10.73;8.13;;;6.10;99.90;;;;;;4933774;29;20450;-73
2021/12/08 13:25:48;;;;;;;13.70;9.40;;;6.10;99.90;;;;;;4933680;29;20484;-73
2021/12/08 13:28:21;;;;;;;12.70;8.87;;;6.10;99.90;;;;;;4933771;29;20556;-73
2021/12/08 13:30:52;;;;;;;16.60;10.10;;;6.10;99.90;;;;;;4933517;29;20536;-73
2021/12/08 13:33:38;;;;;;;13.37;10.00;;;6.10;99.90;;;;;;4933531;29;20584;-73
2021/12/08 13:36:31;;;;;;;13.53;9.77;;;6.10;99.90;;;;;;4934150;29;20537;-71
2021/12/08 13:39:26;;;;;;;10.13;8.13;;;6.00;99.90;;;;;;4934212;29;21049;-72
2021/12/08 13:41:57;;;;;;;12.10;8.63;;;6.00;99.90;;;;;;4934360;29;20468;-72
2021/12/08 13:44:32;;;;;;;10.90;8.97;;;6.00;99.90;;;;;;4934371;29;20565;-72
2021/12/08 13:46:59;;;;;;;11.53;8.10;;;6.10;99.90;;;;;;4934967;29;20444;-73
2021/12/08 13:49:30;;;;;;;16.37;12.70;;;6.10;99.90;;;;;;4937996;29;20496;-74
2021/12/08 13:52:17;;;;;;;13.80;10.63;;;6.10;99.90;;;;;;4937865;29;20454;-74
2021/12/08 13:54:45;;;;;;;10.47;9.37;;;6.10;99.90;;;;;;4937907;29;20630;-74
2021/12/08 13:57:35;;;;;;;11.60;8.93;;;6.10;99.90;;;;;;4937924;29;20490;-73
2021/12/08 14:00:08;;;;;;;12.73;9.53;;;6.20;99.90;;;;;;4937850;29;20540;-73
2021/12/08 14:02:45;;;;;;;12.53;9.20;;;6.20;99.90;;;;;;4937882;29;20906;-74
2021/12/08 14:05:15;;;;;;;13.63;9.13;;;6.20;99.90;;;;;;4937828;29;20962;-74
2021/12/08 14:07:45;;;;;;;12.50;10.27;;;6.20;99.90;;;;;;4937532;29;20450;-74
2021/12/08 14:10:14;;;;;;;12.93;10.00;;;6.20;99.90;;;;;;4937723;29;20481;-73
2021/12/08 14:12:44;;;;;;;14.60;10.13;;;6.20;99.90;;;;;;4937562;29;20578;-74
2021/12/08 14:15:15;;;;;;;14.87;10.90;;;6.20;99.90;;;;;;4937597;29;20545;-72
2021/12/08 14:17:42;;;;;;;14.90;11.30;;;6.20;99.90;;;;;;4937521;29;20537;-73
2021/12/08 14:20:25;;;;;;;15.70;10.87;;;6.20;99.90;;;;;;4937079;29;20453;-73
2021/12/08 14:22:54;;;;;;;15.93;11.70;;;6.20;99.90;;;;;;4937590;29;20536;-73
2021/12/08 14:25:31;;;;;;;21.57;13.60;;;6.20;99.90;;;;;;4937544;29;20464;-73
2021/12/08 14:27:58;;;;;;;20.10;13.30;;;6.20;99.90;;;;;;4937517;29;20544;-73
2021/12/08 14:30:25;;;;;;;17.63;13.40;;;6.20;99.90;;;;;;4936878;29;20485;-73
2021/12/08 14:33:01;;;;;;;21.87;15.60;;;6.20;99.90;;;;;;4937297;29;20599;-73
2021/12/08 14:35:28;;;;;;;17.70;11.90;;;6.20;99.90;;;;;;4937383;29;20969;-73
2021/12/08 14:38:02;;;;;;;12.30;10.23;;;6.20;99.90;;;;;;4937193;29;20480;-73
2021/12/08 14:40:29;;;;;;;15.80;11.47;;;6.30;99.90;;;;;;4937083;29;20489;-74
2021/12/08 14:42:56;;;;;;;19.00;14.03;;;6.20;99.90;;;;;;4937131;29;20970;-74
2021/12/08 14:45:27;;;;;;;19.00;15.07;;;6.20;99.90;;;;;;4936733;29;20454;-73
2021/12/08 14:47:54;;;;;;;21.77;14.80;;;6.20;99.90;;;;;;4937206;29;20458;-74
2021/12/08 14:50:24;;;;;;;21.50;15.10;;;6.20;99.90;;;;;;4936711;29;20537;-74
2021/12/08 14:52:52;;;;;;;21.27;15.50;;;6.20;99.90;;;;;;4936948;29;20496;-74
2021/12/08 14:55:21;;;;;;;20.17;14.83;;;6.20;99.90;;;;;;4936909;29;20453;-75
2021/12/08 14:57:52;;;;;;;18.37;14.77;;;6.20;99.90;;;;;;4936990;29;20560;-74
2021/12/08 15:00:22;;;;;;;20.13;13.37;;;6.20;99.90;;;;;;4936829;29;20548;-74
2021/12/08 15:03:00;;;;;;;23.00;13.97;;;6.20;99.90;;;;;;4936704;29;20446;-74
2021/12/08 15:05:28;;;;;;;16.53;12.70;;;6.20;99.90;;;;;;4936770;29;20457;-74
2021/12/08 15:07:55;;;;;;;20.90;13.90;;;6.10;99.90;;;;;;4941590;29;20485;-74
2021/12/08 15:10:28;;;;;;;20.20;14.83;;;6.10;99.90;;;;;;4936318;29;20552;-74
2021/12/08 15:13:07;;;;;;;18.80;13.23;;;6.10;99.90;;;;;;4936583;29;20595;-74
2021/12/08 15:15:35;;;;;;;19.63;14.00;;;6.10;99.90;;;;;;4936582;29;20540;-73
2021/12/08 15:18:04;;;;;;;15.10;11.90;;;6.10;99.90;;;;;;4936417;29;20980;-74
2021/12/08 15:20:35;;;;;;;14.70;11.67;;;6.10;99.90;;;;;;4936004;29;20520;-74
2021/12/08 15:23:02;;;;;;;15.13;11.13;;;6.10;99.90;;;;;;4936498;29;20478;-74
2021/12/08 15:25:31;;;;;;;15.00;11.63;;;6.00;99.90;;;;;;4936480;29;20533;-74
2021/12/08 15:27:59;;;;;;;16.47;12.37;;;6.00;99.90;;;;;;4936512;29;20497;-74
2021/12/08 15:30:38;;;;;;;20.10;12.37;;;6.00;99.90;;;;;;4936039;29;20468;-74
2021/12/08 15:33:07;;;;;;;15.87;11.60;;;6.00;99.90;;;;;;4935958;29;20532;-74
2021/12/08 15:35:35;;;;;;;17.53;12.40;;;6.00;99.90;;;;;;4935040;29;20494;-74
2021/12/08 15:38:02;;;;;;;12.93;11.10;;;6.00;99.90;;;;;;4935246;29;20825;-74
2021/12/08 15:40:35;;;;;;;13.70;10.20;;;6.00;99.90;;;;;;4935453;29;20493;-70
2021/12/08 15:43:05;;;;;;;14.40;11.53;;;5.90;99.90;;;;;;4935950;29;20832;-70
2021/12/08 15:45:35;;;;;;;15.07;11.43;;;6.00;99.90;;;;;;4935523;29;21196;-70
2021/12/08 15:48:02;;;;;;;14.67;11.60;;;5.90;99.90;;;;;;4936242;29;20521;-74
2021/12/08 15:50:32;;;;;;;13.67;10.97;;;5.90;99.90;;;;;;4935819;29;20453;-73
2021/12/08 15:53:01;;;;;;;13.40;10.30;;;5.90;99.90;;;;;;4935885;29;20508;-74
2021/12/08 15:55:32;;;;;;;14.40;10.40;;;5.90;99.90;;;;;;4935833;29;20954;-73
2021/12/08 15:58:01;;;;;;;13.83;11.00;;;6.00;99.90;;;;;;4935710;29;20526;-73
2021/12/08 16:00:42;;;;;;;16.67;13.00;;;6.00;99.90;;;;;;4935599;29;20541;-73
2021/12/08 16:03:09;;;;;;;21.10;16.67;;;6.00;99.90;;;;;;4935771;29;20466;-77
2021/12/08 16:05:37;;;;;;;19.87;15.63;;;6.00;99.90;;;;;;4935669;29;20538;-77
2021/12/08 16:08:06;;;;;;;40.50;27.53;;;6.00;99.90;;;;;;4935755;29;20521;-77
2021/12/08 16:10:36;;;;;;;32.47;25.20;;;6.00;99.90;;;;;;4934743;29;20496;-77
2021/12/08 16:13:05;;;;;;;43.60;28.80;;;6.00;99.90;;;;;;4935841;29;21053;-77
2021/12/08 16:15:46;;;;;;;31.30;22.20;;;6.00;99.90;;;;;;4936262;29;20481;-77
2021/12/08 16:18:15;;;;;;;33.67;21.17;;;5.90;99.90;;;;;;4935789;29;20549;-77
2021/12/08 16:20:42;;;;;;;29.50;20.50;;;5.90;99.90;;;;;;4935411;29;21037;-77
2021/12/08 16:23:10;;;;;;;27.50;20.40;;;5.90;99.90;;;;;;4935335;29;20469;-77
2021/12/08 16:25:38;;;;;;;27.97;20.23;;;5.90;99.90;;;;;;4935529;29;20486;-77
2021/12/08 16:28:07;;;;;;;30.13;19.93;;;5.90;99.90;;;;;;4935560;29;20518;-77
2021/12/08 16:30:34;;;;;;;22.43;16.37;;;5.90;99.90;;;;;;4935207;29;20546;-77
2021/12/08 16:33:01;;;;;;;25.90;18.20;;;5.90;99.90;;;;;;4935284;29;20584;-77
2021/12/08 16:35:28;;;;;;;23.83;15.63;;;5.90;99.90;;;;;;4935082;29;20545;-77
2021/12/08 16:37:58;;;;;;;21.83;15.27;;;5.90;99.90;;;;;;4935415;29;20574;-77
2021/12/08 16:43:08;;;;;;;14.93;11.60;;;5.90;99.90;;;;;;4934832;29;20465;-77
2021/12/08 16:45:38;;;;;;;16.30;11.30;;;5.90;99.90;;;;;;4934761;29;20464;-77
2021/12/08 16:48:08;;;;;;;16.83;12.33;;;5.90;99.90;;;;;;4934820;29;20462;-77
2021/12/08 16:50:37;;;;;;;17.63;13.00;;;5.80;99.90;;;;;;4935037;29;20954;-77
2021/12/08 16:53:05;;;;;;;24.40;15.70;;;5.80;99.90;;;;;;4934941;29;20501;-77
2021/12/08 16:55:32;;;;;;;33.87;18.63;;;5.80;99.90;;;;;;4935215;29;20546;-77
2021/12/08 16:58:01;;;;;;;39.47;20.40;;;5.80;99.90;;;;;;4935055;29;20536;-77
2021/12/08 17:00:34;;;;;;;34.17;20.20;;;5.80;99.90;;;;;;4934604;29;20500;-77
2021/12/08 17:03:02;;;;;;;30.73;18.10;;;5.80;99.90;;;;;;4935217;29;20470;-77
2021/12/08 17:05:29;;;;;;;24.07;14.83;;;5.80;99.90;;;;;;4935899;29;20536;-77
2021/12/08 17:07:56;;;;;;;23.70;14.63;;;5.80;99.90;;;;;;4934756;29;20488;-74
2021/12/08 17:10:23;;;;;;;20.07;13.73;;;5.80;99.90;;;;;;4934220;29;20493;-74
2021/12/08 17:12:50;;;;;;;19.50;14.50;;;5.80;99.90;;;;;;4934437;29;20525;-74
2021/12/08 17:15:19;;;;;;;23.10;16.97;;;5.90;99.90;;;;;;4950350;23;20630;-74
2021/12/08 17:17:47;;;;;;;24.43;17.43;;;5.80;99.90;;;;;;4972339;28;20467;-74
2021/12/08 17:20:14;;;;;;;19.50;15.93;;;5.80;99.90;;;;;;4972890;28;20534;-74
2021/12/08 17:22:42;;;;;;;23.87;17.17;;;5.80;99.90;;;;;;4974674;28;20483;-73
2021/12/08 17:25:10;;;;;;;23.00;16.70;;;5.80;99.90;;;;;;4973320;28;20476;-73
2021/12/08 17:27:40;;;;;;;25.33;16.93;;;5.80;99.90;;;;;;4957170;28;20888;-74
2021/12/08 17:30:10;;;;;;;23.80;17.10;;;5.80;99.90;;;;;;4957400;28;20492;-73
2021/12/08 17:32:38;;;;;;;39.97;25.73;;;5.80;99.90;;;;;;4957758;29;20456;-74
2021/12/08 17:35:08;;;;;;;46.40;26.90;;;5.80;99.90;;;;;;4957449;28;20947;-73
2021/12/08 17:37:36;;;;;;;42.90;26.67;;;5.80;99.90;;;;;;4957836;28;20528;-73
2021/12/08 17:40:03;;;;;;;45.50;26.20;;;5.80;99.90;;;;;;4957034;29;20465;-73
2021/12/08 17:42:30;;;;;;;56.17;30.37;;;5.80;99.90;;;;;;4957371;29;20488;-73
2021/12/08 17:44:57;;;;;;;49.10;28.90;;;5.80;99.90;;;;;;4957452;28;20463;-73
2021/12/08 17:47:24;;;;;;;40.47;24.80;;;5.80;99.90;;;;;;4957604;28;20461;-74
2021/12/08 17:49:52;;;;;;;31.83;20.00;;;5.80;99.90;;;;;;4957141;28;20457;-74
2021/12/08 17:52:21;;;;;;;35.50;22.47;;;5.80;99.90;;;;;;4957240;28;20469;-73
2021/12/08 17:54:49;;;;;;;38.80;23.43;;;5.80;99.90;;;;;;4956905;28;20500;-74
2021/12/08 17:57:17;;;;;;;45.37;26.10;;;5.80;99.90;;;;;;4957266;28;20532;-74
2021/12/08 17:59:44;;;;;;;50.67;29.47;;;5.80;99.90;;;;;;4956826;29;20507;-74
2021/12/08 18:02:12;;;;;;;64.60;35.10;;;5.80;99.90;;;;;;4957219;29;20449;-74
2021/12/08 18:04:40;;;;;;;67.57;35.30;;;5.80;99.90;;;;;;4957089;28;20547;-72
2021/12/08 18:07:07;;;;;;;75.50;39.40;;;5.80;99.90;;;;;;4956858;29;20461;-73
2021/12/08 18:09:35;;;;;;;68.47;38.40;;;5.70;99.90;;;;;;4956953;29;20484;-73
2021/12/08 18:12:02;;;;;;;67.43;35.60;;;5.70;99.90;;;;;;4957055;28;20457;-73